Time;durP1;ratioP1;P1;durP2;ratioP2;P2;SDS_P1;SDS_P2;PMS_P1;PMS_P2;Temp;Humidity;BMP_temperature;BMP_pressure;BME280_temperature;BME280_humidity;BME280_pressure;Samples;Min_cycle;Max_cycle;Signal;HPM_P1;HPM_P2
2023/04/26 00:00:22;;;;;;;2.75;0.50;;;4.60;99.90;;;;;;5038227;28;20061;-35
2023/04/26 00:02:47;;;;;;;3.92;1.30;;;4.70;99.90;;;;;;5037952;28;20076;-35
2023/04/26 00:05:14;;;;;;;5.97;0.75;;;4.70;99.90;;;;;;5037745;28;20507;-35
2023/04/26 00:07:41;;;;;;;4.07;0.73;;;4.70;99.90;;;;;;5033967;28;20047;-35
2023/04/26 00:10:08;;;;;;;4.38;1.00;;;4.60;99.90;;;;;;5038775;28;20380;-35
2023/04/26 00:12:35;;;;;;;4.57;0.52;;;4.60;99.90;;;;;;5037681;28;20052;-35
2023/04/26 00:15:01;;;;;;;3.53;0.80;;;4.60;99.90;;;;;;5043724;28;20098;-35
2023/04/26 00:17:27;;;;;;;5.40;0.70;;;4.50;99.90;;;;;;5038912;28;20044;-34
2023/04/26 00:19:53;;;;;;;4.72;0.80;;;4.50;99.90;;;;;;5040193;28;20458;-35
2023/04/26 00:22:19;;;;;;;3.17;0.55;;;4.50;99.90;;;;;;5030586;28;20050;-36
2023/04/26 00:24:44;;;;;;;3.80;0.93;;;4.50;99.90;;;;;;5038797;28;20045;-35
2023/04/26 00:27:10;;;;;;;7.28;0.80;;;4.50;99.90;;;;;;5034664;28;20076;-35
2023/04/26 00:29:36;;;;;;;2.05;0.60;;;4.50;99.90;;;;;;5037208;28;20045;-35
2023/04/26 00:32:02;;;;;;;3.08;0.52;;;4.50;99.90;;;;;;5031228;28;20060;-36
2023/04/26 00:34:35;;;;;;;4.85;1.20;;;4.50;99.90;;;;;;5037934;28;20060;-36
2023/04/26 00:37:02;;;;;;;4.45;0.73;;;4.60;99.90;;;;;;5034651;28;20143;-35
2023/04/26 00:39:28;;;;;;;3.83;0.85;;;4.60;99.90;;;;;;5047764;28;20617;-35
2023/04/26 00:41:54;;;;;;;6.68;0.90;;;4.70;99.90;;;;;;5040285;28;20503;-35
2023/04/26 00:44:20;;;;;;;4.13;0.68;;;4.80;99.90;;;;;;5033463;28;20053;-35
2023/04/26 00:46:46;;;;;;;2.72;0.40;;;4.80;99.90;;;;;;5044611;28;20111;-36
2023/04/26 00:49:18;;;;;;;2.97;0.68;;;4.80;99.90;;;;;;5038084;28;20098;-35
2023/04/26 00:51:44;;;;;;;2.03;0.93;;;4.80;99.90;;;;;;5037302;28;20053;-35
2023/04/26 00:54:11;;;;;;;1.95;0.60;;;4.80;99.90;;;;;;5034953;28;20302;-35
2023/04/26 00:56:38;;;;;;;4.72;1.35;;;4.80;99.90;;;;;;5041622;28;20075;-35
2023/04/26 00:59:03;;;;;;;1.70;0.47;;;4.80;99.90;;;;;;5046782;28;20076;-35
2023/04/26 01:01:29;;;;;;;7.28;0.52;;;4.80;99.90;;;;;;5041263;28;20470;-35
2023/04/26 01:03:55;;;;;;;6.20;0.80;;;4.70;99.90;;;;;;5037471;28;20061;-35
2023/04/26 01:06:21;;;;;;;6.03;0.82;;;4.70;99.90;;;;;;5038041;28;20137;-35
2023/04/26 01:08:50;;;;;;;6.47;0.88;;;4.70;99.90;;;;;;5038278;28;20045;-35
2023/04/26 01:11:18;;;;;;;3.25;0.60;;;4.70;99.90;;;;;;5040839;28;20061;-35
2023/04/26 01:13:45;;;;;;;2.13;0.50;;;4.60;99.90;;;;;;5039638;28;20052;-35
2023/04/26 01:16:12;;;;;;;2.30;0.65;;;4.60;99.90;;;;;;5033237;28;20065;-35
2023/04/26 01:18:38;;;;;;;1.88;0.40;;;4.50;99.90;;;;;;5040743;28;20053;-35
2023/04/26 01:21:04;;;;;;;2.10;0.47;;;4.50;99.90;;;;;;5029114;28;20144;-35
2023/04/26 01:23:30;;;;;;;3.92;0.50;;;4.50;99.90;;;;;;5037399;28;20131;-35
2023/04/26 01:25:56;;;;;;;2.08;0.50;;;4.40;99.90;;;;;;5040069;28;20052;-35
2023/04/26 01:28:22;;;;;;;1.60;0.80;;;4.40;99.90;;;;;;5036654;28;20060;-36
2023/04/26 01:30:48;;;;;;;1.85;0.50;;;4.40;99.90;;;;;;5036587;28;20050;-35
2023/04/26 01:33:14;;;;;;;0.88;0.30;;;4.40;99.90;;;;;;5036411;28;20448;-35
2023/04/26 01:35:40;;;;;;;2.85;0.55;;;4.40;99.90;;;;;;5045481;28;20499;-35
2023/04/26 01:38:07;;;;;;;2.90;0.43;;;4.40;99.90;;;;;;5044631;28;20049;-35
2023/04/26 01:40:32;;;;;;;2.83;0.60;;;4.40;99.90;;;;;;5044264;28;20060;-35
2023/04/26 01:42:58;;;;;;;2.50;0.50;;;4.30;99.90;;;;;;5043272;28;20048;-36
2023/04/26 01:45:23;;;;;;;1.52;0.63;;;4.30;99.90;;;;;;5040602;28;20061;-35
2023/04/26 01:47:49;;;;;;;3.05;0.90;;;4.20;99.90;;;;;;5041035;28;20049;-35
2023/04/26 01:50:15;;;;;;;3.60;0.82;;;4.20;99.90;;;;;;5036995;28;20053;-35
2023/04/26 01:52:41;;;;;;;2.40;0.50;;;4.10;99.90;;;;;;5046292;28;20425;-35
2023/04/26 01:55:07;;;;;;;1.55;0.63;;;4.00;99.90;;;;;;5042115;28;20049;-35
2023/04/26 01:57:32;;;;;;;2.67;0.60;;;3.90;99.90;;;;;;5035009;28;20484;-35
2023/04/26 01:59:58;;;;;;;4.47;0.70;;;3.90;99.90;;;;;;5031855;28;20046;-35
2023/04/26 02:02:24;;;;;;;3.10;0.60;;;3.80;99.90;;;;;;5043405;28;20041;-35
2023/04/26 02:04:50;;;;;;;2.15;0.40;;;3.80;99.90;;;;;;5042978;28;20041;-35
2023/04/26 02:07:15;;;;;;;4.43;0.88;;;3.80;99.90;;;;;;5041907;28;20068;-36
2023/04/26 02:09:41;;;;;;;3.53;0.85;;;3.80;99.90;;;;;;5040685;28;20473;-35
2023/04/26 02:12:07;;;;;;;4.18;0.70;;;3.80;99.90;;;;;;5039253;28;20060;-35
2023/04/26 02:14:33;;;;;;;1.80;0.50;;;3.80;99.90;;;;;;5040402;28;20506;-36
2023/04/26 02:16:58;;;;;;;2.58;0.50;;;3.80;99.90;;;;;;5039469;28;20054;-36
2023/04/26 02:19:24;;;;;;;2.55;0.40;;;3.80;99.90;;;;;;5040401;28;20126;-35
2023/04/26 02:21:58;;;;;;;4.03;0.80;;;3.80;99.90;;;;;;5039553;28;20045;-35
2023/04/26 02:24:24;;;;;;;5.88;1.85;;;3.80;99.90;;;;;;5048263;28;20049;-35
2023/04/26 02:26:51;;;;;;;3.50;0.93;;;3.80;99.90;;;;;;5037167;28;20052;-34
2023/04/26 02:29:17;;;;;;;3.33;0.60;;;3.80;99.90;;;;;;5041526;28;20123;-35
2023/04/26 02:31:43;;;;;;;5.13;1.17;;;3.70;99.90;;;;;;5040854;28;20045;-35
2023/04/26 02:34:09;;;;;;;2.22;0.63;;;3.70;99.90;;;;;;5042297;28;20065;-35
2023/04/26 02:36:34;;;;;;;2.03;0.70;;;3.60;99.90;;;;;;5042921;28;20049;-35
2023/04/26 02:39:00;;;;;;;2.30;0.70;;;3.60;99.90;;;;;;5047875;28;20095;-35
2023/04/26 02:41:26;;;;;;;4.30;0.85;;;3.50;99.90;;;;;;5040458;28;20480;-35
2023/04/26 02:43:51;;;;;;;3.05;0.57;;;3.50;99.90;;;;;;5041629;28;20075;-35
2023/04/26 02:46:17;;;;;;;2.92;0.60;;;3.50;99.90;;;;;;5039464;28;20081;-35
2023/04/26 02:48:43;;;;;;;3.22;0.70;;;3.50;99.90;;;;;;5032479;28;20099;-35
2023/04/26 02:51:09;;;;;;;2.53;0.70;;;3.40;99.90;;;;;;5038994;28;20049;-35
2023/04/26 02:53:35;;;;;;;3.90;0.80;;;3.50;99.90;;;;;;5039618;28;20127;-35
2023/04/26 02:56:01;;;;;;;2.30;0.85;;;3.50;99.90;;;;;;5037514;28;20088;-35
2023/04/26 02:58:26;;;;;;;8.15;1.10;;;3.50;99.90;;;;;;5038946;28;20056;-35
2023/04/26 03:00:53;;;;;;;3.13;0.57;;;3.50;99.90;;;;;;5036083;28;20053;-35
2023/04/26 03:03:19;;;;;;;3.53;0.88;;;3.50;99.90;;;;;;5042255;28;20053;-35
2023/04/26 03:05:45;;;;;;;4.30;0.80;;;3.50;99.90;;;;;;5038868;28;20049;-35
2023/04/26 03:08:11;;;;;;;3.10;0.98;;;3.60;99.90;;;;;;5037799;28;20053;-35
2023/04/26 03:10:37;;;;;;;7.80;1.35;;;3.70;99.90;;;;;;5039664;28;20059;-35
2023/04/26 03:13:04;;;;;;;5.30;0.80;;;3.80;99.90;;;;;;5038516;28;20045;-35
2023/04/26 03:15:29;;;;;;;2.55;0.60;;;4.00;99.90;;;;;;5039213;28;20554;-36
2023/04/26 03:17:56;;;;;;;4.18;0.70;;;4.10;99.90;;;;;;5035613;28;20120;-35
2023/04/26 03:20:26;;;;;;;2.83;1.05;;;4.20;99.90;;;;;;5041141;28;20499;-35
2023/04/26 03:22:51;;;;;;;5.10;0.70;;;4.20;99.90;;;;;;5030942;28;20073;-35
2023/04/26 03:25:17;;;;;;;3.78;0.80;;;4.20;99.90;;;;;;5038329;28;20142;-35
2023/04/26 03:27:42;;;;;;;4.80;0.70;;;4.30;99.90;;;;;;5043743;28;20049;-35
2023/04/26 03:30:09;;;;;;;3.22;0.98;;;4.30;99.90;;;;;;5037929;28;20049;-35
2023/04/26 03:32:34;;;;;;;2.67;0.65;;;4.30;99.90;;;;;;5039542;28;20053;-35
2023/04/26 03:35:00;;;;;;;3.67;0.73;;;4.20;99.90;;;;;;5036778;28;20439;-35
2023/04/26 03:37:26;;;;;;;4.63;0.80;;;4.20;99.90;;;;;;5038282;28;20045;-35
2023/04/26 03:39:52;;;;;;;3.17;0.60;;;4.20;99.90;;;;;;5046072;28;20087;-35
2023/04/26 03:42:19;;;;;;;3.47;0.95;;;4.20;99.90;;;;;;5044143;28;20442;-35
2023/04/26 03:44:45;;;;;;;4.40;0.85;;;4.20;99.90;;;;;;5039116;28;20504;-35
2023/04/26 03:47:11;;;;;;;2.90;0.77;;;4.20;99.90;;;;;;5038190;28;20051;-35
2023/04/26 03:49:36;;;;;;;4.25;0.70;;;4.30;99.90;;;;;;5038597;28;20846;-35
2023/04/26 03:52:03;;;;;;;2.33;0.60;;;4.30;99.90;;;;;;5052766;28;20061;-35
2023/04/26 03:54:28;;;;;;;5.15;0.70;;;4.40;99.90;;;;;;5029653;28;20073;-35
2023/04/26 03:56:54;;;;;;;5.25;0.80;;;4.40;99.90;;;;;;5040559;28;20076;-35
2023/04/26 03:59:20;;;;;;;3.33;0.55;;;4.40;99.90;;;;;;5042528;28;20049;-35
2023/04/26 04:01:45;;;;;;;7.72;1.45;;;4.50;99.90;;;;;;5038170;28;20461;-35
2023/04/26 04:04:11;;;;;;;1.40;0.50;;;4.50;99.90;;;;;;5037363;28;20067;-35
2023/04/26 04:06:37;;;;;;;2.42;0.50;;;4.50;99.90;;;;;;5045264;28;20056;-35
2023/04/26 04:09:04;;;;;;;6.07;0.57;;;4.50;99.90;;;;;;5038307;28;20060;-36
2023/04/26 04:11:30;;;;;;;1.38;0.40;;;4.50;99.90;;;;;;5037623;28;20061;-36
2023/04/26 04:13:56;;;;;;;1.70;0.40;;;4.50;99.90;;;;;;5041973;28;20446;-36
2023/04/26 04:16:21;;;;;;;4.13;0.47;;;4.40;99.90;;;;;;5037499;28;20065;-35
2023/04/26 04:18:47;;;;;;;1.58;0.40;;;4.40;99.90;;;;;;5037612;28;20519;-35
2023/04/26 04:21:12;;;;;;;1.65;0.45;;;4.40;99.90;;;;;;5035496;28;20056;-35
2023/04/26 04:23:38;;;;;;;1.40;0.50;;;4.30;99.90;;;;;;5033246;28;20128;-35
2023/04/26 04:26:04;;;;;;;3.05;0.68;;;4.30;99.90;;;;;;5037863;28;20045;-35
2023/04/26 04:28:31;;;;;;;4.30;1.33;;;4.20;99.90;;;;;;5036151;28;20513;-35
2023/04/26 04:30:57;;;;;;;3.92;0.82;;;4.10;99.90;;;;;;5037253;28;20408;-35
2023/04/26 04:33:24;;;;;;;6.05;1.48;;;4.00;99.90;;;;;;5029289;28;20057;-35
2023/04/26 04:35:51;;;;;;;3.53;0.75;;;3.90;99.90;;;;;;5037821;28;20044;-35
2023/04/26 04:38:17;;;;;;;3.40;0.90;;;3.80;99.90;;;;;;5037904;28;20067;-35
2023/04/26 04:40:42;;;;;;;9.25;1.17;;;3.60;99.90;;;;;;5037671;28;20065;-35
2023/04/26 04:43:09;;;;;;;3.60;1.00;;;3.50;99.90;;;;;;5041467;28;20056;-34
2023/04/26 04:45:36;;;;;;;4.68;1.17;;;3.40;99.90;;;;;;5040357;28;20052;-35
2023/04/26 04:48:03;;;;;;;4.57;1.10;;;3.50;99.90;;;;;;5032976;28;20060;-35
2023/04/26 04:50:32;;;;;;;5.57;0.90;;;3.30;99.90;;;;;;5034426;28;20041;-35
2023/04/26 04:52:58;;;;;;;2.53;0.82;;;3.30;99.90;;;;;;5044312;28;20175;-35
2023/04/26 04:55:23;;;;;;;3.00;1.08;;;3.30;99.90;;;;;;5036974;28;20136;-34
2023/04/26 04:57:49;;;;;;;5.93;1.20;;;3.30;99.90;;;;;;5037861;28;20049;-35
2023/04/26 05:00:15;;;;;;;2.38;1.08;;;3.40;99.90;;;;;;5045084;28;20045;-34
2023/04/26 05:02:41;;;;;;;4.57;0.80;;;3.40;99.90;;;;;;5029287;28;20137;-36
2023/04/26 05:05:07;;;;;;;3.85;0.80;;;3.50;99.90;;;;;;5029459;28;20129;-36
2023/04/26 05:07:33;;;;;;;6.43;1.60;;;3.50;99.90;;;;;;5045731;28;20518;-35
2023/04/26 05:09:59;;;;;;;10.13;2.42;;;3.50;99.90;;;;;;5042692;28;20454;-35
2023/04/26 05:12:25;;;;;;;14.45;3.83;;;3.60;99.90;;;;;;5037771;28;20053;-35
2023/04/26 05:14:51;;;;;;;11.77;3.95;;;3.70;99.90;;;;;;5048252;28;20140;-35
2023/04/26 05:17:17;;;;;;;9.27;3.55;;;3.80;99.90;;;;;;5040648;28;20466;-34
2023/04/26 05:19:42;;;;;;;12.65;4.15;;;3.90;99.90;;;;;;5033194;28;20164;-34
2023/04/26 05:22:08;;;;;;;12.30;3.25;;;4.00;99.90;;;;;;5056356;28;20053;-34
2023/04/26 05:24:33;;;;;;;7.03;2.05;;;4.20;99.90;;;;;;5040218;28;20049;-35
2023/04/26 05:26:59;;;;;;;7.15;1.20;;;4.30;99.90;;;;;;5040656;28;20053;-35
2023/04/26 05:29:29;;;;;;;2.30;0.70;;;4.30;99.90;;;;;;5042809;28;20053;-34
2023/04/26 05:31:55;;;;;;;4.22;1.05;;;4.40;99.90;;;;;;5036784;28;20053;-34
2023/04/26 05:34:23;;;;;;;5.03;0.80;;;4.50;99.90;;;;;;5034407;28;20057;-34
2023/04/26 05:36:48;;;;;;;1.70;0.60;;;4.70;99.90;;;;;;5040363;28;20507;-35
2023/04/26 05:39:14;;;;;;;2.55;0.80;;;4.80;99.90;;;;;;5039530;28;20055;-35
2023/04/26 05:41:40;;;;;;;3.88;1.27;;;4.90;99.90;;;;;;5038841;28;20049;-35
2023/04/26 05:44:06;;;;;;;4.75;0.90;;;5.00;99.90;;;;;;5040187;28;20079;-35
2023/04/26 05:46:32;;;;;;;5.88;0.93;;;5.10;99.90;;;;;;5039004;28;20431;-35
2023/04/26 05:48:57;;;;;;;2.10;0.82;;;5.10;99.90;;;;;;5044321;28;20053;-35
2023/04/26 05:51:23;;;;;;;1.70;0.82;;;5.10;99.90;;;;;;5034846;28;20046;-33
2023/04/26 05:53:49;;;;;;;6.93;0.82;;;5.20;99.90;;;;;;5037973;28;20107;-33
2023/04/26 05:56:14;;;;;;;3.47;0.90;;;5.30;99.90;;;;;;5048655;28;20448;-35
2023/04/26 05:58:40;;;;;;;2.78;0.50;;;5.30;99.90;;;;;;5036056;28;20049;-34
2023/04/26 06:01:06;;;;;;;2.15;0.80;;;5.30;99.90;;;;;;5048809;28;20053;-34
2023/04/26 06:03:31;;;;;;;5.10;1.35;;;5.40;99.90;;;;;;5039025;28;20151;-34
2023/04/26 06:05:58;;;;;;;4.80;0.70;;;5.40;99.90;;;;;;5037230;28;20107;-34
2023/04/26 06:08:23;;;;;;;5.22;0.73;;;5.50;99.90;;;;;;5032864;28;20061;-34
2023/04/26 06:10:49;;;;;;;3.97;0.70;;;5.50;99.90;;;;;;5038201;28;20045;-34
2023/04/26 06:13:15;;;;;;;2.97;0.88;;;5.60;99.90;;;;;;5039517;28;20483;-34
2023/04/26 06:15:41;;;;;;;3.97;0.63;;;5.70;99.90;;;;;;5040509;28;20103;-34
2023/04/26 06:18:07;;;;;;;5.28;0.88;;;5.70;99.90;;;;;;5031105;28;20062;-34
2023/04/26 06:20:33;;;;;;;1.50;0.80;;;5.70;99.90;;;;;;5033738;28;20084;-34
2023/04/26 06:22:58;;;;;;;3.53;0.65;;;5.80;99.90;;;;;;5043761;28;20127;-34
2023/04/26 06:25:24;;;;;;;2.03;0.60;;;5.80;99.90;;;;;;5038841;28;20104;-34
2023/04/26 06:27:49;;;;;;;1.40;0.68;;;5.80;99.90;;;;;;5036314;28;20135;-35
2023/04/26 06:30:15;;;;;;;1.35;0.55;;;5.80;99.90;;;;;;5046114;28;20402;-34
2023/04/26 06:32:41;;;;;;;1.83;0.70;;;5.80;99.90;;;;;;5038870;28;20045;-34
2023/04/26 06:35:07;;;;;;;17.92;7.95;;;5.80;99.90;;;;;;5039959;28;20053;-34
2023/04/26 06:37:33;;;;;;;23.70;9.75;;;5.80;99.90;;;;;;5039488;28;20065;-34
2023/04/26 06:40:00;;;;;;;23.30;11.18;;;5.90;99.90;;;;;;5044527;28;20395;-34
2023/04/26 06:42:26;;;;;;;28.10;12.65;;;5.90;99.90;;;;;;5040822;28;20510;-34
2023/04/26 06:44:52;;;;;;;14.70;5.90;;;5.90;99.90;;;;;;5041482;28;20056;-34
2023/04/26 06:47:17;;;;;;;14.27;4.88;;;5.90;99.90;;;;;;5046098;28;20076;-35
2023/04/26 06:49:43;;;;;;;11.27;5.10;;;5.90;99.90;;;;;;5046325;28;20103;-34
2023/04/26 06:52:08;;;;;;;11.93;5.00;;;5.90;99.90;;;;;;5037369;28;20080;-34
2023/04/26 06:54:34;;;;;;;14.57;5.32;;;6.00;99.90;;;;;;5040095;28;20061;-34
2023/04/26 06:57:00;;;;;;;20.05;6.65;;;6.10;99.90;;;;;;5039138;28;20064;-34
2023/04/26 06:59:26;;;;;;;12.73;4.15;;;6.20;99.90;;;;;;5036757;28;20041;-34
2023/04/26 07:01:52;;;;;;;8.43;2.60;;;6.20;99.90;;;;;;5040983;28;20052;-35
2023/04/26 07:04:19;;;;;;;5.05;1.98;;;6.20;99.90;;;;;;5042500;28;20103;-34
2023/04/26 07:06:45;;;;;;;6.65;2.10;;;6.40;99.90;;;;;;5043053;28;20570;-34
2023/04/26 07:09:11;;;;;;;6.65;2.20;;;6.40;99.90;;;;;;5044912;28;20447;-34
2023/04/26 07:11:37;;;;;;;7.60;2.45;;;6.50;99.90;;;;;;5030237;28;20049;-34
2023/04/26 07:14:03;;;;;;;10.00;3.45;;;6.50;99.90;;;;;;5034194;28;20079;-34
2023/04/26 07:16:29;;;;;;;15.82;5.30;;;6.60;99.90;;;;;;5042058;28;20057;-34
2023/04/26 07:18:57;;;;;;;16.02;5.05;;;6.70;99.90;;;;;;5038886;28;20036;-34
2023/04/26 07:21:24;;;;;;;7.63;2.30;;;6.80;99.90;;;;;;5036688;28;20400;-34
2023/04/26 07:23:56;;;;;;;9.45;3.60;;;6.90;99.90;;;;;;5037882;28;20569;-34
2023/04/26 07:26:23;;;;;;;7.57;3.22;;;7.10;99.90;;;;;;5039034;28;20423;-35
2023/04/26 07:28:50;;;;;;;3.00;0.70;;;7.10;99.90;;;;;;5044217;28;20083;-34
2023/04/26 07:31:16;;;;;;;2.53;0.50;;;7.20;99.90;;;;;;5041428;28;20127;-34
2023/04/26 07:33:42;;;;;;;3.97;0.60;;;7.00;99.90;;;;;;5032617;28;20141;-35
2023/04/26 07:36:08;;;;;;;3.28;1.30;;;7.00;99.90;;;;;;5034747;28;20140;-35
2023/04/26 07:38:33;;;;;;;4.30;0.47;;;6.90;99.90;;;;;;5037672;28;20058;-34
2023/04/26 07:41:02;;;;;;;2.92;0.50;;;6.90;99.90;;;;;;5040842;28;20053;-35
2023/04/26 07:43:28;;;;;;;3.90;0.65;;;6.90;99.90;;;;;;5035554;28;20111;-35
2023/04/26 07:45:54;;;;;;;1.85;0.50;;;7.00;99.90;;;;;;5038907;28;20049;-35
2023/04/26 07:48:20;;;;;;;2.38;0.57;;;7.00;99.90;;;;;;5040137;28;20126;-35
2023/04/26 07:50:46;;;;;;;2.28;0.50;;;7.10;99.90;;;;;;5040413;28;20057;-35
2023/04/26 07:53:12;;;;;;;1.58;0.50;;;7.20;99.90;;;;;;5038721;28;20099;-35
2023/04/26 07:55:37;;;;;;;2.90;0.50;;;7.30;99.90;;;;;;5033972;28;20472;-35
2023/04/26 07:58:03;;;;;;;3.55;0.65;;;7.40;99.90;;;;;;5038146;28;20517;-35
2023/04/26 08:00:29;;;;;;;2.28;0.40;;;7.50;99.90;;;;;;5039361;28;20450;-35
2023/04/26 08:02:54;;;;;;;1.42;0.50;;;7.60;99.90;;;;;;5057104;28;20137;-35
2023/04/26 08:05:20;;;;;;;1.90;0.60;;;7.70;99.90;;;;;;5036805;28;20053;-36
2023/04/26 08:07:46;;;;;;;4.07;0.50;;;7.80;99.90;;;;;;5040752;28;20049;-35
2023/04/26 08:10:12;;;;;;;2.80;0.55;;;7.90;99.90;;;;;;5038073;28;20123;-35
2023/04/26 08:12:38;;;;;;;1.58;0.40;;;7.90;99.90;;;;;;5036267;28;20080;-35
2023/04/26 08:15:04;;;;;;;3.58;0.60;;;8.00;99.90;;;;;;5041869;28;20061;-35
2023/04/26 08:17:31;;;;;;;5.05;0.50;;;8.00;99.90;;;;;;5041358;28;20526;-36
2023/04/26 08:19:57;;;;;;;4.72;1.13;;;8.00;99.90;;;;;;5038776;28;20049;-35
2023/04/26 08:22:23;;;;;;;3.80;0.32;;;8.00;99.90;;;;;;5038238;28;20068;-36
2023/04/26 08:24:50;;;;;;;1.05;0.52;;;8.10;99.90;;;;;;5039604;28;20057;-38
2023/04/26 08:27:17;;;;;;;3.97;0.57;;;8.10;99.90;;;;;;5043944;28;20426;-34
2023/04/26 08:29:43;;;;;;;1.90;0.40;;;8.00;99.90;;;;;;5039202;28;20057;-34
2023/04/26 08:32:09;;;;;;;3.05;0.50;;;8.10;99.90;;;;;;5038097;28;20060;-35
2023/04/26 08:34:35;;;;;;;4.10;0.57;;;8.20;99.90;;;;;;5037533;28;20129;-34
2023/04/26 08:37:00;;;;;;;1.08;0.45;;;8.30;99.90;;;;;;5029327;28;20049;-34
2023/04/26 08:39:26;;;;;;;3.50;1.02;;;8.20;99.90;;;;;;5041101;28;20491;-35
2023/04/26 08:41:58;;;;;;;3.42;0.80;;;8.30;99.90;;;;;;5042851;28;20434;-34
2023/04/26 08:44:24;;;;;;;2.20;0.50;;;8.30;99.90;;;;;;5044369;28;20099;-34
2023/04/26 08:47:05;;;;;;;2.15;0.60;;;8.40;99.90;;;;;;5047849;28;20538;-36
2023/04/26 08:49:40;;;;;;;6.95;0.75;;;8.60;99.90;;;;;;5035564;28;20064;-34
2023/04/26 08:52:10;;;;;;;3.42;0.70;;;8.70;99.90;;;;;;5044181;28;20076;-34
2023/04/26 08:54:37;;;;;;;1.73;0.60;;;8.70;99.90;;;;;;5037851;28;20056;-34
2023/04/26 08:57:04;;;;;;;3.60;1.10;;;8.60;99.90;;;;;;5044421;28;20057;-34
2023/04/26 08:59:30;;;;;;;2.30;0.60;;;8.60;99.90;;;;;;5036551;28;20060;-34
2023/04/26 09:01:57;;;;;;;3.00;0.60;;;8.70;99.90;;;;;;5044053;28;20048;-34
2023/04/26 09:04:23;;;;;;;3.30;0.70;;;8.70;99.90;;;;;;5042973;28;20049;-34
2023/04/26 09:06:52;;;;;;;2.95;0.70;;;8.80;99.90;;;;;;5040560;28;20521;-34
2023/04/26 09:09:18;;;;;;;2.17;0.60;;;8.90;99.90;;;;;;5038861;28;20049;-34
2023/04/26 09:11:55;;;;;;;5.18;0.95;;;9.00;99.90;;;;;;5045718;28;20561;-34
2023/04/26 09:14:21;;;;;;;5.43;0.60;;;9.10;99.90;;;;;;5033826;28;20053;-34
2023/04/26 09:16:47;;;;;;;1.70;0.40;;;9.10;99.90;;;;;;5047755;28;20064;-34
2023/04/26 09:19:12;;;;;;;3.13;0.52;;;9.00;99.90;;;;;;5036673;28;20056;-34
2023/04/26 09:21:45;;;;;;;2.13;0.45;;;9.00;99.90;;;;;;5041487;28;20408;-34
2023/04/26 09:24:11;;;;;;;1.42;0.45;;;9.00;99.90;;;;;;5037140;28;20064;-34
2023/04/26 09:26:37;;;;;;;4.28;0.80;;;8.90;99.90;;;;;;5035645;28;20045;-34
2023/04/26 09:29:13;;;;;;;4.22;0.98;;;8.80;99.90;;;;;;5043818;28;20102;-34
2023/04/26 09:31:42;;;;;;;3.47;0.70;;;8.70;99.90;;;;;;5043505;28;20468;-34
2023/04/26 09:34:10;;;;;;;4.15;0.60;;;8.70;99.90;;;;;;5043586;28;20091;-34
2023/04/26 09:36:55;;;;;;;5.40;0.65;;;8.70;99.90;;;;;;5048182;28;20065;-34
2023/04/26 09:39:36;;;;;;;5.85;0.80;;;8.90;99.90;;;;;;5040735;28;20107;-34
2023/04/26 09:42:03;;;;;;;3.67;0.63;;;8.90;99.90;;;;;;5037949;28;20494;-34
2023/04/26 09:44:30;;;;;;;1.60;0.50;;;9.00;99.90;;;;;;5042903;28;20049;-34
2023/04/26 09:47:10;;;;;;;1.60;0.43;;;9.10;99.90;;;;;;5038931;28;20569;-34
2023/04/26 09:49:47;;;;;;;2.83;0.60;;;9.00;99.90;;;;;;5041383;28;20122;-34
2023/04/26 09:52:13;;;;;;;3.33;0.77;;;9.00;99.90;;;;;;5041395;28;20057;-34
2023/04/26 09:54:40;;;;;;;3.55;0.60;;;9.10;99.90;;;;;;5041532;28;20499;-34
2023/04/26 09:57:06;;;;;;;2.38;0.60;;;9.00;99.90;;;;;;5037921;28;20498;-34
2023/04/26 09:59:41;;;;;;;3.90;0.63;;;9.10;99.90;;;;;;5034498;28;20049;-34
2023/04/26 10:02:14;;;;;;;4.82;1.17;;;9.30;99.90;;;;;;5045607;28;20491;-34
2023/04/26 10:04:45;;;;;;;3.83;0.80;;;9.60;99.90;;;;;;5039639;28;20111;-34
2023/04/26 10:07:12;;;;;;;1.23;0.40;;;10.00;99.90;;;;;;5039405;28;20056;-34
2023/04/26 10:09:40;;;;;;;3.63;0.70;;;10.20;99.90;;;;;;5031458;28;20053;-33
2023/04/26 10:12:07;;;;;;;2.92;0.73;;;10.20;99.90;;;;;;5032033;28;20074;-33
2023/04/26 10:14:34;;;;;;;3.58;0.90;;;10.10;99.90;;;;;;5020870;28;20558;-33
2023/04/26 10:17:04;;;;;;;3.10;0.70;;;10.10;99.90;;;;;;5029915;28;20049;-33
2023/04/26 10:19:33;;;;;;;2.65;0.70;;;10.20;99.90;;;;;;5031215;28;20057;-34
2023/04/26 10:22:09;;;;;;;2.83;0.70;;;10.10;99.90;;;;;;5037971;28;20479;-34
2023/04/26 10:24:36;;;;;;;3.55;0.65;;;10.10;99.90;;;;;;5040564;28;20488;-34
2023/04/26 10:27:03;;;;;;;3.63;0.63;;;10.00;99.90;;;;;;5031219;28;20511;-34
2023/04/26 10:29:53;;;;;;;3.58;0.60;;;9.80;99.90;;;;;;5031105;28;20056;-34
2023/04/26 10:32:22;;;;;;;1.15;0.40;;;9.80;99.90;;;;;;5029847;28;20056;-34
2023/04/26 10:35:08;;;;;;;3.33;0.73;;;9.80;99.90;;;;;;5037695;28;20057;-34
2023/04/26 10:37:34;;;;;;;9.30;0.93;;;9.90;99.90;;;;;;5039970;28;20060;-34
2023/04/26 10:40:22;;;;;;;2.65;0.50;;;9.90;99.90;;;;;;5038200;28;20395;-34
2023/04/26 10:42:48;;;;;;;2.05;1.08;;;9.90;99.90;;;;;;5038530;28;20140;-34
2023/04/26 10:45:26;;;;;;;6.65;0.60;;;9.70;99.90;;;;;;5046360;28;20131;-34
2023/04/26 10:48:17;;;;;;;1.02;0.43;;;9.50;99.90;;;;;;5050072;28;20415;-34
2023/04/26 10:51:15;;;;;;;2.55;0.50;;;9.40;99.90;;;;;;5048311;28;20057;-34
2023/04/26 10:53:46;;;;;;;3.20;0.55;;;9.20;99.90;;;;;;5035468;28;20418;-34
2023/04/26 10:56:27;;;;;;;2.30;0.60;;;9.20;99.90;;;;;;5043512;28;20041;-34
2023/04/26 10:59:18;;;;;;;2.10;0.95;;;9.00;99.90;;;;;;5030441;28;20492;-34
2023/04/26 11:01:44;;;;;;;3.63;0.40;;;9.10;99.90;;;;;;5030130;28;20054;-34
2023/04/26 11:04:11;;;;;;;2.30;0.47;;;9.20;99.90;;;;;;5035652;28;20041;-34
2023/04/26 11:06:53;;;;;;;3.70;0.43;;;9.20;99.90;;;;;;5050043;28;20538;-34
2023/04/26 11:09:38;;;;;;;1.97;0.50;;;9.30;99.90;;;;;;5050830;28;20167;-34
2023/04/26 11:12:06;;;;;;;1.95;0.50;;;9.30;99.90;;;;;;5049737;28;20061;-34
2023/04/26 11:14:34;;;;;;;3.00;0.50;;;9.50;99.90;;;;;;5035013;28;20061;-34
2023/04/26 11:17:07;;;;;;;1.02;0.40;;;9.60;99.90;;;;;;5037934;28;20507;-34
2023/04/26 11:19:33;;;;;;;1.52;0.57;;;9.90;99.90;;;;;;5030263;28;20136;-34
2023/04/26 11:22:05;;;;;;;2.67;0.60;;;10.20;99.90;;;;;;5029736;28;20132;-34
2023/04/26 11:24:32;;;;;;;3.88;0.50;;;10.40;99.90;;;;;;5030675;28;20056;-34
2023/04/26 11:26:58;;;;;;;6.10;0.50;;;10.80;99.90;;;;;;5038030;28;20076;-34
2023/04/26 11:29:24;;;;;;;8.00;0.52;;;11.00;99.90;;;;;;5031247;28;20523;-34
2023/04/26 11:31:55;;;;;;;2.15;0.52;;;10.90;99.90;;;;;;5029849;28;20115;-34
2023/04/26 11:34:33;;;;;;;3.42;0.50;;;10.80;99.90;;;;;;5030208;28;20466;-34
2023/04/26 11:37:00;;;;;;;3.60;1.05;;;10.50;99.90;;;;;;5029596;28;20565;-34
2023/04/26 11:39:26;;;;;;;3.58;0.82;;;10.20;99.90;;;;;;5028720;28;20095;-34
2023/04/26 11:42:04;;;;;;;1.63;0.47;;;10.10;99.90;;;;;;5029554;28;20434;-34
2023/04/26 11:44:30;;;;;;;4.90;0.88;;;10.00;99.90;;;;;;5036696;28;20055;-34
2023/04/26 11:46:56;;;;;;;2.78;0.60;;;10.00;99.90;;;;;;5047664;28;20135;-34
2023/04/26 11:49:22;;;;;;;2.17;0.60;;;10.00;99.90;;;;;;5034597;28;20052;-34
2023/04/26 11:51:48;;;;;;;2.70;0.70;;;9.90;99.90;;;;;;5032417;28;20056;-34
2023/04/26 11:54:30;;;;;;;5.25;0.95;;;10.00;99.90;;;;;;5029821;28;20411;-34
2023/04/26 11:56:59;;;;;;;1.70;0.50;;;10.00;99.90;;;;;;5030873;28;20045;-34
2023/04/26 11:59:26;;;;;;;2.78;0.50;;;10.00;99.90;;;;;;5043652;28;20053;-34
2023/04/26 12:01:52;;;;;;;6.60;0.90;;;9.90;99.90;;;;;;5028240;28;20049;-34
2023/04/26 12:04:18;;;;;;;2.28;0.55;;;10.00;99.90;;;;;;5029362;28;20077;-34
2023/04/26 12:06:45;;;;;;;2.15;0.70;;;10.00;99.90;;;;;;5037712;28;20057;-34
2023/04/26 12:09:11;;;;;;;3.85;0.70;;;9.90;99.90;;;;;;5032937;28;20499;-34
2023/04/26 12:11:38;;;;;;;1.30;0.47;;;9.90;99.90;;;;;;5029370;28;20184;-34
2023/04/26 12:14:04;;;;;;;2.60;0.50;;;9.90;99.90;;;;;;5029080;28;20427;-34
2023/04/26 12:16:30;;;;;;;1.60;0.45;;;10.00;99.90;;;;;;5037323;28;20050;-34
2023/04/26 12:18:56;;;;;;;5.10;0.95;;;10.10;99.90;;;;;;5028557;28;20057;-34
2023/04/26 12:21:23;;;;;;;4.60;0.60;;;10.10;99.90;;;;;;5029907;28;20501;-34
2023/04/26 12:23:49;;;;;;;2.53;0.50;;;10.10;99.90;;;;;;5028617;28;20076;-39
2023/04/26 12:26:16;;;;;;;2.25;0.70;;;10.20;99.90;;;;;;5029828;28;20573;-34
2023/04/26 12:28:42;;;;;;;1.48;0.70;;;10.20;99.90;;;;;;5011491;28;20111;-34
2023/04/26 12:31:08;;;;;;;3.67;0.75;;;10.20;99.90;;;;;;5028554;28;20138;-34
2023/04/26 12:33:34;;;;;;;5.43;1.10;;;10.20;99.90;;;;;;5037501;28;20053;-34
2023/04/26 12:36:10;;;;;;;5.88;1.27;;;10.30;99.90;;;;;;5028550;28;20057;-34
2023/04/26 12:38:36;;;;;;;4.18;0.73;;;10.30;99.90;;;;;;5035237;28;20065;-35
2023/04/26 12:41:02;;;;;;;4.00;0.75;;;10.10;99.90;;;;;;5038652;28;20124;-34
2023/04/26 12:43:28;;;;;;;2.35;0.88;;;10.00;99.90;;;;;;5021612;28;20053;-34
2023/04/26 12:45:54;;;;;;;5.68;0.85;;;9.90;99.90;;;;;;5036888;28;20061;-34
2023/04/26 12:48:20;;;;;;;3.80;0.88;;;9.90;99.90;;;;;;5029124;28;20108;-34
2023/04/26 12:50:45;;;;;;;2.92;0.70;;;10.00;99.90;;;;;;5028920;28;20096;-34
2023/04/26 12:53:11;;;;;;;3.33;0.63;;;9.90;99.90;;;;;;5047714;28;20084;-34
2023/04/26 12:55:37;;;;;;;1.92;0.80;;;9.90;99.90;;;;;;5034824;28;20041;-34